createdAt,value
2022-10-29T00:00:15.818Z,21.48
2022-10-29T00:02:42.389Z,21.67
2022-10-29T00:05:09.290Z,21.72
2022-10-29T00:07:35.798Z,21.95
2022-10-29T00:10:02.396Z,21.99
2022-10-29T00:12:28.946Z,22.00
2022-10-29T00:14:55.424Z,21.93
2022-10-29T00:17:21.899Z,22.05
2022-10-29T00:19:48.990Z,22.04
2022-10-29T00:22:15.841Z,21.94
2022-10-29T00:24:42.350Z,21.97
2022-10-29T00:27:08.804Z,22.20
2022-10-29T00:29:35.268Z,22.08
2022-10-29T00:32:01.763Z,22.26
2022-10-29T00:34:29.172Z,22.21
2022-10-29T00:36:55.726Z,22.06
2022-10-29T00:39:22.178Z,22.05
2022-10-29T00:41:48.648Z,21.99
2022-10-29T00:44:15.039Z,22.05
2022-10-29T00:46:44.430Z,21.93
2022-10-29T00:49:11.391Z,22.12
2022-10-29T00:51:38.637Z,21.77
2022-10-29T00:54:08.557Z,22.03
2022-10-29T00:57:01.575Z,22.02
2022-10-29T00:59:28.085Z,22.02
2022-10-29T01:01:55.983Z,21.83
2022-10-29T01:04:23.634Z,21.99
2022-10-29T01:06:50.141Z,22.04
2022-10-29T01:09:16.680Z,22.07
2022-10-29T01:12:20.995Z,21.84
2022-10-29T01:15:01.071Z,22.00
2022-10-29T01:17:40.165Z,21.49
2022-10-29T01:20:12.614Z,21.80
2022-10-29T01:22:39.068Z,21.76
2022-10-29T01:25:41.018Z,21.93
2022-10-29T01:28:36.112Z,21.96
2022-10-29T01:31:15.225Z,21.88
2022-10-29T01:34:12.585Z,21.81
2022-10-29T01:36:48.909Z,21.72
2022-10-29T01:39:41.749Z,21.82
2022-10-29T01:42:11.290Z,21.89
2022-10-29T01:45:02.102Z,21.68
2022-10-29T01:47:32.076Z,21.65
2022-10-29T01:50:03.763Z,21.61
2022-10-29T01:52:32.897Z,21.01
2022-10-29T01:54:59.360Z,21.18
2022-10-29T01:57:25.771Z,21.37
2022-10-29T01:59:56.125Z,21.47
2022-10-29T02:02:48.071Z,21.44
2022-10-29T02:05:27.549Z,21.53
2022-10-29T02:08:29.127Z,21.24
2022-10-29T02:10:58.497Z,21.51
2022-10-29T02:13:31.996Z,21.37
2022-10-29T02:15:58.968Z,21.22
2022-10-29T02:18:25.585Z,21.38
2022-10-29T02:20:52.136Z,21.41
2022-10-29T02:23:18.677Z,21.24
2022-10-29T02:25:45.298Z,21.44
2022-10-29T02:28:11.905Z,21.45
2022-10-29T02:30:38.485Z,21.42
2022-10-29T02:33:04.913Z,21.29
2022-10-29T02:35:31.372Z,21.26
2022-10-29T02:37:57.840Z,21.38
2022-10-29T02:40:24.382Z,21.17
2022-10-29T02:42:50.875Z,21.18
2022-10-29T02:45:17.299Z,21.24
2022-10-29T02:47:43.743Z,21.26
2022-10-29T02:50:10.208Z,21.26
2022-10-29T02:52:36.649Z,21.24
2022-10-29T02:55:03.434Z,21.15
2022-10-29T02:57:29.880Z,21.17
2022-10-29T02:59:56.335Z,21.03
2022-10-29T03:02:22.895Z,20.81
2022-10-29T03:04:49.484Z,20.62
2022-10-29T03:07:15.918Z,20.72
2022-10-29T03:09:42.422Z,20.85
2022-10-29T03:12:08.853Z,20.81
2022-10-29T03:14:35.318Z,20.92
2022-10-29T03:17:01.780Z,20.79
2022-10-29T03:19:29.396Z,20.60
2022-10-29T03:21:55.884Z,20.55
2022-10-29T03:24:22.707Z,20.72
2022-10-29T03:26:49.130Z,20.77
2022-10-29T03:29:15.662Z,20.70
2022-10-29T03:31:42.173Z,20.56
2022-10-29T03:34:08.628Z,20.12
2022-10-29T03:36:35.068Z,20.22
2022-10-29T03:39:01.559Z,20.47
2022-10-29T03:41:28.348Z,20.44
2022-10-29T03:46:22.225Z,20.47
2022-10-29T03:48:51.680Z,20.30
2022-10-29T03:51:18.180Z,20.31
2022-10-29T03:53:44.599Z,20.22
2022-10-29T03:56:11.074Z,20.20
2022-10-29T03:58:37.512Z,19.58
2022-10-29T04:01:05.789Z,19.79
2022-10-29T04:03:33.701Z,20.11
2022-10-29T04:06:01.644Z,20.10
2022-10-29T04:08:28.437Z,20.23
2022-10-29T04:10:54.911Z,20.02
2022-10-29T04:13:21.443Z,20.17
2022-10-29T04:15:47.939Z,19.92
2022-10-29T04:18:14.517Z,20.32
2022-10-29T04:22:10.263Z,20.32
2022-10-29T04:29:02.490Z,20.28
2022-10-29T04:31:28.927Z,20.18
2022-10-29T04:33:55.384Z,20.13
2022-10-29T04:36:21.864Z,20.21
2022-10-29T04:38:48.295Z,20.30
2022-10-29T04:41:14.725Z,20.16
2022-10-29T04:43:41.187Z,19.82
2022-10-29T04:46:09.797Z,19.91
2022-10-29T04:48:36.731Z,20.25
2022-10-29T04:51:03.469Z,20.38
2022-10-29T04:53:30.133Z,20.28
2022-10-29T04:56:01.367Z,20.53
2022-10-29T04:58:28.368Z,20.37
2022-10-29T05:01:01.150Z,20.35
2022-10-29T05:03:27.862Z,20.32
2022-10-29T05:05:54.335Z,20.01
2022-10-29T05:08:21.517Z,20.34
2022-10-29T05:10:47.970Z,19.91
2022-10-29T05:13:14.566Z,20.22
2022-10-29T05:15:41.670Z,20.24
2022-10-29T05:18:09.332Z,20.16
2022-10-29T05:20:35.858Z,20.23
2022-10-29T05:23:06.890Z,20.06
2022-10-29T05:25:37.732Z,20.30
2022-10-29T05:28:05.464Z,20.30
2022-10-29T05:30:33.166Z,20.31
2022-10-29T05:33:00.094Z,20.39
2022-10-29T05:35:27.269Z,20.39
2022-10-29T05:37:54.601Z,20.46
2022-10-29T05:40:22.020Z,20.44
2022-10-29T05:42:48.849Z,20.52
2022-10-29T05:45:15.755Z,20.55
2022-10-29T05:47:42.430Z,20.39
2022-10-29T05:50:09.735Z,20.33
2022-10-29T05:52:36.434Z,20.28
2022-10-29T05:55:03.158Z,20.44
2022-10-29T05:57:32.462Z,20.23
2022-10-29T05:59:59.097Z,20.41
2022-10-29T06:02:25.796Z,20.23
2022-10-29T06:04:52.434Z,20.24
2022-10-29T06:07:18.986Z,20.13
2022-10-29T06:09:45.465Z,20.44
2022-10-29T06:12:11.872Z,20.24
2022-10-29T06:14:38.336Z,20.40
2022-10-29T06:17:04.796Z,20.43
2022-10-29T06:19:31.494Z,20.35
2022-10-29T06:22:00.402Z,20.29
2022-10-29T06:24:27.585Z,20.17
2022-10-29T06:26:54.556Z,20.38
2022-10-29T06:29:21.214Z,20.48
2022-10-29T06:31:47.778Z,20.55
2022-10-29T06:34:14.904Z,20.36
2022-10-29T06:36:41.540Z,20.64
2022-10-29T06:39:07.991Z,20.66
2022-10-29T06:41:34.492Z,20.71
2022-10-29T06:44:01.023Z,20.77
2022-10-29T06:46:27.511Z,20.82
2022-10-29T06:48:54.028Z,20.65
2022-10-29T06:51:20.511Z,20.89
2022-10-29T06:53:46.934Z,20.74
2022-10-29T06:56:13.395Z,20.63
2022-10-29T06:58:39.945Z,20.76
2022-10-29T07:01:06.462Z,20.86
2022-10-29T07:03:33.004Z,21.05
2022-10-29T07:06:00.044Z,20.93
2022-10-29T07:08:26.870Z,20.94
2022-10-29T07:10:54.526Z,21.36
2022-10-29T07:13:20.971Z,21.45
2022-10-29T07:15:47.419Z,21.31
2022-10-29T07:18:13.895Z,21.65
2022-10-29T07:20:42.754Z,21.47
2022-10-29T07:23:10.292Z,21.66
2022-10-29T07:25:37.566Z,21.73
2022-10-29T07:28:13.496Z,21.76
2022-10-29T07:30:40.798Z,21.82
2022-10-29T07:33:07.265Z,21.89
2022-10-29T07:35:34.779Z,21.98
2022-10-29T07:38:07.131Z,22.00
2022-10-29T07:40:38.051Z,21.92
2022-10-29T07:43:04.564Z,22.05
2022-10-29T07:45:31.034Z,22.16
2022-10-29T07:48:07.489Z,22.17
2022-10-29T07:50:34.154Z,22.36
2022-10-29T07:53:01.416Z,22.40
2022-10-29T07:57:58.900Z,22.43
2022-10-29T08:00:25.982Z,22.34
2022-10-29T08:02:54.330Z,22.25
2022-10-29T08:05:21.545Z,22.45
2022-10-29T08:07:47.988Z,22.40
2022-10-29T08:10:14.656Z,22.33
2022-10-29T08:12:41.108Z,22.67
2022-10-29T08:15:08.323Z,22.38
2022-10-29T08:17:34.785Z,22.60
2022-10-29T08:20:01.206Z,22.90
2022-10-29T08:22:30.531Z,23.33
2022-10-29T08:24:57.471Z,23.25
2022-10-29T08:27:24.029Z,23.58
2022-10-29T08:29:50.471Z,23.69
2022-10-29T08:32:16.923Z,23.77
2022-10-29T08:34:43.438Z,23.86
2022-10-29T08:37:09.871Z,24.18
2022-10-29T08:39:36.350Z,24.43
2022-10-29T08:42:33.793Z,24.63
2022-10-29T08:45:09.143Z,24.76
2022-10-29T08:48:07.386Z,25.19
2022-10-29T08:50:41.024Z,25.21
2022-10-29T08:53:24.428Z,25.74
2022-10-29T08:55:52.359Z,25.93
2022-10-29T08:58:30.925Z,26.25
2022-10-29T09:00:58.451Z,26.66
2022-10-29T09:03:27.243Z,27.31
2022-10-29T09:06:15.948Z,27.59
2022-10-29T09:09:17.423Z,27.94
2022-10-29T09:12:07.132Z,28.33
2022-10-29T09:14:59.980Z,28.45
2022-10-29T09:17:54.677Z,28.75
2022-10-29T09:20:50.977Z,30.18
2022-10-29T09:23:23.553Z,31.40
2022-10-29T09:26:05.481Z,33.13
2022-10-29T09:28:48.568Z,37.03
2022-10-29T09:31:34.746Z,39.05
2022-10-29T09:34:19.813Z,41.65
2022-10-29T09:36:47.858Z,41.19
2022-10-29T09:39:18.815Z,41.32
2022-10-29T09:41:48.654Z,40.39
2022-10-29T09:44:34.595Z,41.40
2022-10-29T09:47:21.029Z,40.88
2022-10-29T09:50:08.352Z,39.16
2022-10-29T09:52:37.355Z,37.00
2022-10-29T09:55:06.031Z,36.45
2022-10-29T09:57:34.770Z,36.36
2022-10-29T10:00:05.398Z,38.41
2022-10-29T10:02:55.414Z,41.11
2022-10-29T10:05:31.211Z,43.63
2022-10-29T10:08:11.234Z,44.69
2022-10-29T10:11:04.887Z,46.68
2022-10-29T10:13:36.755Z,47.64
2022-10-29T10:16:05.805Z,46.88
2022-10-29T10:18:32.262Z,45.37
2022-10-29T10:21:11.051Z,41.85
2022-10-29T10:23:54.274Z,40.72
2022-10-29T10:26:50.154Z,40.30
2022-10-29T10:29:23.577Z,39.39
2022-10-29T10:31:50.663Z,38.78
2022-10-29T10:34:36.362Z,39.73
2022-10-29T10:37:13.807Z,39.16
2022-10-29T10:39:42.574Z,36.92
2022-10-29T10:42:39.535Z,35.50
2022-10-29T10:45:14.536Z,33.06
2022-10-29T10:47:47.494Z,33.29
2022-10-29T10:50:17.193Z,34.54
2022-10-29T10:52:45.090Z,35.58
2022-10-29T10:55:24.185Z,35.64
2022-10-29T10:58:15.096Z,35.76
2022-10-29T11:00:49.453Z,35.62
2022-10-29T11:06:04.323Z,37.46
2022-10-29T11:08:36.219Z,38.98
2022-10-29T11:11:08.556Z,39.86
2022-10-29T11:13:35.355Z,38.43
2022-10-29T11:16:07.916Z,39.34
2022-10-29T11:19:05.501Z,39.71
2022-10-29T11:21:39.437Z,41.17
2022-10-29T11:24:18.189Z,43.84
2022-10-29T11:26:48.775Z,46.18
2022-10-29T11:29:39.605Z,43.84
2022-10-29T11:32:15.237Z,43.82
2022-10-29T11:34:46.803Z,42.10
2022-10-29T11:37:21.365Z,40.55
2022-10-29T11:39:50.532Z,41.53
2022-10-29T11:42:17.013Z,42.48
2022-10-29T11:44:43.525Z,41.45
2022-10-29T11:47:27.237Z,37.31
2022-10-29T11:50:06.332Z,39.94
2022-10-29T11:52:56.159Z,38.75
2022-10-29T11:55:40.919Z,42.15
2022-10-29T11:58:16.699Z,40.83
2022-10-29T12:01:10.626Z,39.62
2022-10-29T12:03:46.368Z,39.23
2022-10-29T12:06:19.792Z,40.76
2022-10-29T12:09:04.471Z,40.03
2022-10-29T12:11:43.140Z,38.93
2022-10-29T12:14:29.806Z,37.71
2022-10-29T12:17:03.596Z,33.55
2022-10-29T12:19:47.209Z,32.72
2022-10-29T12:22:22.713Z,31.95
2022-10-29T12:24:58.047Z,31.84
2022-10-29T12:27:40.898Z,30.75
2022-10-29T12:30:09.566Z,30.72
2022-10-29T12:33:06.377Z,30.67
2022-10-29T12:35:57.467Z,29.96
2022-10-29T12:38:37.464Z,28.86
2022-10-29T12:41:26.685Z,29.37
2022-10-29T12:44:00.865Z,28.31
2022-10-29T12:46:39.574Z,28.67
2022-10-29T12:49:15.749Z,29.11
2022-10-29T12:54:40.956Z,28.83
2022-10-29T12:57:13.574Z,28.76
2022-10-29T12:59:44.112Z,29.00
2022-10-29T13:02:26.761Z,28.35
2022-10-29T13:05:11.406Z,28.95
2022-10-29T13:07:58.320Z,28.48
2022-10-29T13:10:31.232Z,28.77
2022-10-29T13:13:02.198Z,29.15
2022-10-29T13:16:01.931Z,28.43
2022-10-29T13:18:44.391Z,28.83
2022-10-29T13:21:11.071Z,28.65
2022-10-29T13:23:37.901Z,27.72
2022-10-29T13:26:06.393Z,27.66
2022-10-29T13:28:35.929Z,28.90
2022-10-29T13:31:08.417Z,28.22
2022-10-29T13:33:38.021Z,28.67
2022-10-29T13:36:04.630Z,28.71
2022-10-29T13:38:58.004Z,28.90
2022-10-29T13:41:42.556Z,27.99
2022-10-29T13:44:23.681Z,28.09
2022-10-29T13:46:53.916Z,27.33
2022-10-29T13:49:24.792Z,28.63
2022-10-29T13:52:14.838Z,29.11
2022-10-29T13:54:47.448Z,27.71
2022-10-29T13:57:30.110Z,27.99
2022-10-29T14:00:01.907Z,28.37
2022-10-29T14:02:40.458Z,28.01
2022-10-29T14:05:21.733Z,29.12
2022-10-29T14:08:06.345Z,27.71
2022-10-29T14:10:41.934Z,28.13
2022-10-29T14:13:19.195Z,28.15
2022-10-29T14:16:01.837Z,27.79
2022-10-29T14:18:28.958Z,27.88
2022-10-29T14:21:00.560Z,28.13
2022-10-29T14:23:28.309Z,26.89
2022-10-29T14:25:56.792Z,27.59
2022-10-29T14:28:31.057Z,27.85
2022-10-29T14:31:28.064Z,26.95
2022-10-29T14:33:57.299Z,27.18
2022-10-29T14:36:39.843Z,27.47
2022-10-29T14:39:09.742Z,27.74
2022-10-29T14:41:38.337Z,27.79
2022-10-29T14:44:24.029Z,28.47
2022-10-29T14:46:58.121Z,28.71
2022-10-29T14:49:25.684Z,28.52
2022-10-29T14:51:58.539Z,28.81
2022-10-29T14:54:27.105Z,28.53
2022-10-29T14:57:06.747Z,28.66
2022-10-29T14:59:34.237Z,28.67
2022-10-29T15:02:17.428Z,28.43
2022-10-29T15:04:56.917Z,28.29
2022-10-29T15:07:23.515Z,28.17
2022-10-29T15:10:10.914Z,27.69
2022-10-29T15:12:39.387Z,27.82
2022-10-29T15:15:25.919Z,27.70
2022-10-29T15:17:58.670Z,27.52
2022-10-29T15:23:59.790Z,27.19
2022-10-29T15:26:26.984Z,26.78
2022-10-29T15:28:54.921Z,26.81
2022-10-29T15:31:24.274Z,26.55
2022-10-29T15:33:52.143Z,26.35
2022-10-29T15:36:18.671Z,26.47
2022-10-29T15:38:52.238Z,26.46
2022-10-29T15:41:44.111Z,26.44
2022-10-29T15:44:27.877Z,26.34
2022-10-29T15:46:58.870Z,26.23
2022-10-29T15:49:31.415Z,26.13
2022-10-29T15:52:00.596Z,25.80
2022-10-29T15:54:27.903Z,25.92
2022-10-29T15:56:54.536Z,25.75
2022-10-29T15:59:23.997Z,25.90
2022-10-29T16:01:50.568Z,25.48
2022-10-29T16:04:17.084Z,25.73
2022-10-29T16:06:43.595Z,25.71
2022-10-29T16:09:16.725Z,25.46
2022-10-29T16:11:43.223Z,25.50
2022-10-29T16:14:10.048Z,25.35
2022-10-29T16:16:37.654Z,25.29
2022-10-29T16:19:04.173Z,25.25
2022-10-29T16:21:30.808Z,24.90
2022-10-29T16:23:57.258Z,25.16
2022-10-29T16:26:25.070Z,24.94
2022-10-29T16:28:53.249Z,24.68
2022-10-29T16:31:29.096Z,24.82
2022-10-29T16:33:59.569Z,24.31
2022-10-29T16:36:26.099Z,24.78
2022-10-29T16:38:52.681Z,24.62
2022-10-29T16:41:19.881Z,24.63
2022-10-29T16:43:46.969Z,24.34
2022-10-29T16:46:14.059Z,24.53
2022-10-29T16:48:40.853Z,23.92
2022-10-29T16:51:07.799Z,23.75
2022-10-29T16:53:34.786Z,23.76
2022-10-29T16:56:01.624Z,23.62
2022-10-29T16:58:28.112Z,23.89
2022-10-29T17:01:05.369Z,24.09
2022-10-29T17:03:33.113Z,24.07
2022-10-29T17:06:07.794Z,24.22
2022-10-29T17:08:35.198Z,24.01
2022-10-29T17:11:02.773Z,23.99
2022-10-29T17:13:29.367Z,23.81
2022-10-29T17:15:56.022Z,23.62
2022-10-29T17:18:24.171Z,23.75
2022-10-29T17:20:57.806Z,23.93
2022-10-29T17:23:24.474Z,23.53
2022-10-29T17:25:52.917Z,23.43
2022-10-29T17:28:19.774Z,23.89
2022-10-29T17:30:46.673Z,23.42
2022-10-29T17:33:13.299Z,23.82
2022-10-29T17:35:39.946Z,23.98
2022-10-29T17:38:06.461Z,23.95
2022-10-29T17:40:32.922Z,24.04
2022-10-29T17:42:59.844Z,23.81
2022-10-29T17:45:26.473Z,23.56
2022-10-29T17:47:57.378Z,23.44
2022-10-29T17:50:25.294Z,23.56
2022-10-29T17:52:53.206Z,23.46
2022-10-29T17:55:19.890Z,23.52
2022-10-29T17:57:46.383Z,23.55
2022-10-29T18:00:13.458Z,23.79
2022-10-29T18:02:40.011Z,23.83
2022-10-29T18:05:07.445Z,23.90
2022-10-29T18:07:34.265Z,24.08
2022-10-29T18:10:00.732Z,23.96
2022-10-29T18:12:27.184Z,23.98
2022-10-29T18:14:53.695Z,23.71
2022-10-29T18:17:20.203Z,23.92
2022-10-29T18:19:46.765Z,23.63
2022-10-29T18:22:13.290Z,23.86
2022-10-29T18:24:39.842Z,23.89
2022-10-29T18:27:06.299Z,23.80
2022-10-29T18:29:32.829Z,23.56
2022-10-29T18:31:59.274Z,23.55
2022-10-29T18:34:25.756Z,23.55
2022-10-29T18:36:52.180Z,23.27
2022-10-29T18:39:18.663Z,23.43
2022-10-29T18:41:45.136Z,23.51
2022-10-29T18:44:11.662Z,23.22
2022-10-29T18:46:38.147Z,23.32
2022-10-29T18:49:04.607Z,23.20
2022-10-29T18:51:32.689Z,23.26
2022-10-29T18:53:59.640Z,22.59
2022-10-29T18:56:27.235Z,22.73
2022-10-29T18:58:55.600Z,22.84
2022-10-29T19:01:27.805Z,22.48
2022-10-29T19:03:56.449Z,22.67
2022-10-29T19:06:24.701Z,22.58
2022-10-29T19:08:51.684Z,22.40
2022-10-29T19:11:23.756Z,22.67
2022-10-29T19:13:51.453Z,22.22
2022-10-29T19:16:18.439Z,22.12
2022-10-29T19:18:45.061Z,22.25
2022-10-29T19:21:14.048Z,22.63
2022-10-29T19:23:40.648Z,22.69
2022-10-29T19:26:15.753Z,22.43
2022-10-29T19:28:44.101Z,22.48
2022-10-29T19:31:19.447Z,22.25
2022-10-29T19:33:50.283Z,22.51
2022-10-29T19:36:17.503Z,22.60
2022-10-29T19:38:44.206Z,22.70
2022-10-29T19:41:12.274Z,22.19
2022-10-29T19:43:39.229Z,21.97
2022-10-29T19:46:12.374Z,22.32
2022-10-29T19:48:39.382Z,22.42
2022-10-29T19:51:06.313Z,22.05
2022-10-29T19:53:33.464Z,22.23
2022-10-29T19:55:59.927Z,22.10
2022-10-29T19:58:27.597Z,21.90
2022-10-29T20:00:54.814Z,21.87
2022-10-29T20:03:21.540Z,22.13
2022-10-29T20:05:48.815Z,22.23
2022-10-29T20:08:16.298Z,22.30
2022-10-29T20:10:43.422Z,22.16
2022-10-29T20:13:09.942Z,22.12
2022-10-29T20:15:38.587Z,22.15
2022-10-29T20:18:05.471Z,22.34
2022-10-29T20:20:31.977Z,22.41
2022-10-29T20:23:00.058Z,22.23
2022-10-29T20:25:27.376Z,22.12
2022-10-29T20:27:53.926Z,21.95
2022-10-29T20:30:20.510Z,22.04
2022-10-29T20:32:48.417Z,22.18
2022-10-29T20:35:15.317Z,21.72
2022-10-29T20:37:41.777Z,21.83
2022-10-29T20:40:09.065Z,22.08
2022-10-29T20:42:49.408Z,22.42
2022-10-29T20:45:17.370Z,22.28
2022-10-29T20:47:43.828Z,22.57
2022-10-29T20:50:10.336Z,22.46
2022-10-29T20:53:17.592Z,22.68
2022-10-29T20:55:44.065Z,22.30
2022-10-29T20:58:29.399Z,22.19
2022-10-29T21:00:55.926Z,22.61
2022-10-29T21:03:22.495Z,22.62
2022-10-29T21:05:48.969Z,22.64
2022-10-29T21:08:15.613Z,22.21
2022-10-29T21:10:42.126Z,22.02
2022-10-29T21:13:08.682Z,22.21
2022-10-29T21:15:36.215Z,22.00
2022-10-29T21:18:02.740Z,22.30
2022-10-29T21:20:29.253Z,21.86
2022-10-29T21:22:55.963Z,21.78
2022-10-29T21:25:22.586Z,21.75
2022-10-29T21:27:49.070Z,21.68
2022-10-29T21:30:15.924Z,21.89
2022-10-29T21:32:42.569Z,21.59
2022-10-29T21:35:09.218Z,21.62
2022-10-29T21:37:35.662Z,21.68
2022-10-29T21:40:05.976Z,21.01
2022-10-29T21:42:33.063Z,21.56
2022-10-29T21:44:59.564Z,21.71
2022-10-29T21:47:26.041Z,21.40
2022-10-29T21:49:52.680Z,21.34
2022-10-29T21:52:19.154Z,21.31
2022-10-29T21:54:45.664Z,21.47
2022-10-29T21:57:12.165Z,21.27
2022-10-29T21:59:38.686Z,21.22
2022-10-29T22:02:05.282Z,21.37
2022-10-29T22:04:31.838Z,21.01
2022-10-29T22:06:58.791Z,20.63
2022-10-29T22:09:25.317Z,21.23
2022-10-29T22:11:51.822Z,21.62
2022-10-29T22:14:18.289Z,21.09
2022-10-29T22:16:44.798Z,21.32
2022-10-29T22:19:11.259Z,21.42
2022-10-29T22:21:37.814Z,21.44
2022-10-29T22:24:04.948Z,21.62
2022-10-29T22:26:31.599Z,21.15
2022-10-29T22:28:58.082Z,21.44
2022-10-29T22:31:24.698Z,21.53
2022-10-29T22:33:51.729Z,21.63
2022-10-29T22:36:24.308Z,21.62
2022-10-29T22:38:54.990Z,21.33
2022-10-29T22:41:21.938Z,21.22
2022-10-29T22:43:48.444Z,20.91
2022-10-29T22:46:18.849Z,21.14
2022-10-29T22:48:45.709Z,20.93
2022-10-29T22:51:17.772Z,21.20
2022-10-29T22:53:45.014Z,21.10
2022-10-29T22:56:21.367Z,20.95
2022-10-29T22:58:48.597Z,21.23
2022-10-29T23:01:17.470Z,20.95
2022-10-29T23:03:44.505Z,21.01
2022-10-29T23:06:14.057Z,21.11
2022-10-29T23:08:40.648Z,20.82
2022-10-29T23:11:19.354Z,20.84
2022-10-29T23:13:52.066Z,20.69
2022-10-29T23:16:18.895Z,20.43
2022-10-29T23:18:53.017Z,20.55
2022-10-29T23:21:20.172Z,20.29
2022-10-29T23:23:49.710Z,20.45
2022-10-29T23:26:19.798Z,20.31
2022-10-29T23:28:47.250Z,20.21
2022-10-29T23:31:15.948Z,20.16
2022-10-29T23:33:46.936Z,20.22
2022-10-29T23:36:14.210Z,20.35
2022-10-29T23:38:40.833Z,20.11
2022-10-29T23:41:07.742Z,20.41
2022-10-29T23:43:34.455Z,20.27
2022-10-29T23:46:00.911Z,20.53
2022-10-29T23:48:29.955Z,20.37
2022-10-29T23:50:56.665Z,20.52
2022-10-29T23:53:24.164Z,20.73
2022-10-29T23:55:50.708Z,20.56
2022-10-29T23:58:17.155Z,20.81
